sensor_id;sensor_type;location;lat;lon;timestamp;P1;durP1;ratioP1;P2;durP2;ratioP2
46457;SDS011;32155;54.076;12.092;2022-09-09T00:00:17;43.85;;;32.33;;
46457;SDS011;32155;54.076;12.092;2022-09-09T00:05:36;55.90;;;36.08;;
46457;SDS011;32155;54.076;12.092;2022-09-09T00:08:06;51.05;;;34.70;;
46457;SDS011;32155;54.076;12.092;2022-09-09T00:10:43;49.70;;;34.05;;
46457;SDS011;32155;54.076;12.092;2022-09-09T00:18:46;50.28;;;34.08;;
46457;SDS011;32155;54.076;12.092;2022-09-09T00:21:23;55.60;;;36.47;;
46457;SDS011;32155;54.076;12.092;2022-09-09T00:24:14;51.92;;;34.05;;
46457;SDS011;32155;54.076;12.092;2022-09-09T00:26:51;54.53;;;35.42;;
46457;SDS011;32155;54.076;12.092;2022-09-09T00:29:33;57.22;;;35.35;;
46457;SDS011;32155;54.076;12.092;2022-09-09T00:32:12;54.95;;;35.28;;
46457;SDS011;32155;54.076;12.092;2022-09-09T00:34:47;61.80;;;37.17;;
46457;SDS011;32155;54.076;12.092;2022-09-09T00:37:19;54.88;;;35.17;;
46457;SDS011;32155;54.076;12.092;2022-09-09T00:39:47;56.45;;;35.97;;
46457;SDS011;32155;54.076;12.092;2022-09-09T00:42:24;58.25;;;33.95;;
46457;SDS011;32155;54.076;12.092;2022-09-09T00:50:01;56.15;;;33.42;;
46457;SDS011;32155;54.076;12.092;2022-09-09T00:55:39;51.42;;;33.33;;
46457;SDS011;32155;54.076;12.092;2022-09-09T00:58:13;54.15;;;32.63;;
46457;SDS011;32155;54.076;12.092;2022-09-09T01:03:14;42.90;;;28.33;;
46457;SDS011;32155;54.076;12.092;2022-09-09T01:11:32;37.80;;;26.17;;
46457;SDS011;32155;54.076;12.092;2022-09-09T01:17:06;37.30;;;26.27;;
46457;SDS011;32155;54.076;12.092;2022-09-09T01:22:20;34.15;;;23.92;;
46457;SDS011;32155;54.076;12.092;2022-09-09T01:27:55;33.30;;;24.88;;
46457;SDS011;32155;54.076;12.092;2022-09-09T01:30:28;34.40;;;23.63;;
46457;SDS011;32155;54.076;12.092;2022-09-09T01:35:31;30.58;;;22.38;;
46457;SDS011;32155;54.076;12.092;2022-09-09T01:38:11;31.55;;;24.15;;
46457;SDS011;32155;54.076;12.092;2022-09-09T01:40:38;33.05;;;22.50;;
46457;SDS011;32155;54.076;12.092;2022-09-09T01:43:04;34.22;;;23.27;;
46457;SDS011;32155;54.076;12.092;2022-09-09T01:45:31;30.65;;;23.27;;
46457;SDS011;32155;54.076;12.092;2022-09-09T01:50:23;29.42;;;21.25;;
46457;SDS011;32155;54.076;12.092;2022-09-09T01:55:16;28.02;;;21.92;;
46457;SDS011;32155;54.076;12.092;2022-09-09T01:57:50;32.72;;;22.40;;
46457;SDS011;32155;54.076;12.092;2022-09-09T02:00:26;28.67;;;21.17;;
46457;SDS011;32155;54.076;12.092;2022-09-09T02:06:11;32.53;;;22.75;;
46457;SDS011;32155;54.076;12.092;2022-09-09T02:08:42;30.35;;;22.30;;
46457;SDS011;32155;54.076;12.092;2022-09-09T02:11:15;32.38;;;22.23;;
46457;SDS011;32155;54.076;12.092;2022-09-09T02:13:43;29.23;;;21.70;;
46457;SDS011;32155;54.076;12.092;2022-09-09T02:16:12;27.83;;;20.63;;
46457;SDS011;32155;54.076;12.092;2022-09-09T02:19:16;28.42;;;21.17;;
46457;SDS011;32155;54.076;12.092;2022-09-09T02:21:53;28.15;;;20.55;;
46457;SDS011;32155;54.076;12.092;2022-09-09T02:24:21;27.17;;;19.60;;
46457;SDS011;32155;54.076;12.092;2022-09-09T02:26:50;25.65;;;18.85;;
46457;SDS011;32155;54.076;12.092;2022-09-09T02:29:27;26.10;;;19.65;;
46457;SDS011;32155;54.076;12.092;2022-09-09T02:32:07;27.58;;;19.60;;
46457;SDS011;32155;54.076;12.092;2022-09-09T02:34:40;26.90;;;19.38;;
46457;SDS011;32155;54.076;12.092;2022-09-09T02:37:13;28.77;;;20.88;;
46457;SDS011;32155;54.076;12.092;2022-09-09T02:39:42;28.80;;;20.63;;
46457;SDS011;32155;54.076;12.092;2022-09-09T02:44:33;28.52;;;21.65;;
46457;SDS011;32155;54.076;12.092;2022-09-09T02:49:44;34.22;;;23.67;;
46457;SDS011;32155;54.076;12.092;2022-09-09T02:52:27;33.97;;;23.42;;
46457;SDS011;32155;54.076;12.092;2022-09-09T02:55:20;36.30;;;25.05;;
46457;SDS011;32155;54.076;12.092;2022-09-09T02:58:03;42.60;;;26.40;;
46457;SDS011;32155;54.076;12.092;2022-09-09T03:00:32;40.80;;;27.52;;
46457;SDS011;32155;54.076;12.092;2022-09-09T03:05:23;47.25;;;29.70;;
46457;SDS011;32155;54.076;12.092;2022-09-09T03:07:52;43.08;;;28.42;;
46457;SDS011;32155;54.076;12.092;2022-09-09T03:12:44;47.60;;;30.33;;
46457;SDS011;32155;54.076;12.092;2022-09-09T03:15:09;48.25;;;30.48;;
46457;SDS011;32155;54.076;12.092;2022-09-09T03:20:03;57.72;;;33.58;;
46457;SDS011;32155;54.076;12.092;2022-09-09T03:22:29;57.97;;;35.28;;
46457;SDS011;32155;54.076;12.092;2022-09-09T03:24:57;60.30;;;35.40;;
46457;SDS011;32155;54.076;12.092;2022-09-09T03:29:48;61.45;;;35.55;;
46457;SDS011;32155;54.076;12.092;2022-09-09T03:32:16;58.47;;;35.70;;
46457;SDS011;32155;54.076;12.092;2022-09-09T03:34:47;56.97;;;34.10;;
46457;SDS011;32155;54.076;12.092;2022-09-09T03:37:14;57.88;;;34.75;;
46457;SDS011;32155;54.076;12.092;2022-09-09T03:39:46;64.45;;;34.65;;
46457;SDS011;32155;54.076;12.092;2022-09-09T03:42:12;59.10;;;34.47;;
46457;SDS011;32155;54.076;12.092;2022-09-09T03:44:44;61.42;;;35.60;;
46457;SDS011;32155;54.076;12.092;2022-09-09T03:47:19;67.95;;;35.22;;
46457;SDS011;32155;54.076;12.092;2022-09-09T03:49:46;74.57;;;37.40;;
46457;SDS011;32155;54.076;12.092;2022-09-09T03:52:15;65.22;;;34.72;;
46457;SDS011;32155;54.076;12.092;2022-09-09T03:54:41;66.90;;;36.30;;
46457;SDS011;32155;54.076;12.092;2022-09-09T03:57:07;65.85;;;35.58;;
46457;SDS011;32155;54.076;12.092;2022-09-09T03:59:33;64.40;;;35.65;;
46457;SDS011;32155;54.076;12.092;2022-09-09T04:02:00;66.90;;;35.10;;
46457;SDS011;32155;54.076;12.092;2022-09-09T04:04:26;66.47;;;33.92;;
46457;SDS011;32155;54.076;12.092;2022-09-09T04:09:17;70.82;;;37.72;;
46457;SDS011;32155;54.076;12.092;2022-09-09T04:11:43;66.82;;;36.65;;
46457;SDS011;32155;54.076;12.092;2022-09-09T04:14:09;70.90;;;38.85;;
46457;SDS011;32155;54.076;12.092;2022-09-09T04:19:02;74.90;;;39.85;;
46457;SDS011;32155;54.076;12.092;2022-09-09T04:21:29;73.57;;;39.63;;
46457;SDS011;32155;54.076;12.092;2022-09-09T04:23:57;78.50;;;39.85;;
46457;SDS011;32155;54.076;12.092;2022-09-09T04:28:49;82.00;;;39.72;;
46457;SDS011;32155;54.076;12.092;2022-09-09T04:31:16;73.30;;;39.60;;
46457;SDS011;32155;54.076;12.092;2022-09-09T04:33:45;70.78;;;38.47;;
46457;SDS011;32155;54.076;12.092;2022-09-09T04:36:12;70.05;;;37.78;;
46457;SDS011;32155;54.076;12.092;2022-09-09T04:38:38;76.97;;;40.05;;
46457;SDS011;32155;54.076;12.092;2022-09-09T04:41:04;68.93;;;37.75;;
46457;SDS011;32155;54.076;12.092;2022-09-09T04:43:30;70.25;;;36.65;;
46457;SDS011;32155;54.076;12.092;2022-09-09T04:45:58;64.22;;;35.55;;
46457;SDS011;32155;54.076;12.092;2022-09-09T04:50:54;75.03;;;37.17;;
46457;SDS011;32155;54.076;12.092;2022-09-09T04:53:27;77.13;;;38.38;;
46457;SDS011;32155;54.076;12.092;2022-09-09T04:56:00;81.22;;;39.63;;
46457;SDS011;32155;54.076;12.092;2022-09-09T04:58:27;71.65;;;36.67;;
46457;SDS011;32155;54.076;12.092;2022-09-09T05:01:01;77.57;;;37.63;;
46457;SDS011;32155;54.076;12.092;2022-09-09T05:03:31;79.15;;;37.55;;
46457;SDS011;32155;54.076;12.092;2022-09-09T05:08:33;81.32;;;36.58;;
46457;SDS011;32155;54.076;12.092;2022-09-09T05:10:59;80.00;;;38.35;;
46457;SDS011;32155;54.076;12.092;2022-09-09T05:15:54;98.55;;;40.95;;
46457;SDS011;32155;54.076;12.092;2022-09-09T05:18:20;91.50;;;38.55;;
46457;SDS011;32155;54.076;12.092;2022-09-09T05:20:47;98.75;;;41.30;;
46457;SDS011;32155;54.076;12.092;2022-09-09T05:23:13;97.65;;;41.75;;
46457;SDS011;32155;54.076;12.092;2022-09-09T05:28:07;120.15;;;50.35;;
46457;SDS011;32155;54.076;12.092;2022-09-09T05:30:33;119.45;;;52.63;;
46457;SDS011;32155;54.076;12.092;2022-09-09T05:33:01;114.68;;;54.05;;
46457;SDS011;32155;54.076;12.092;2022-09-09T05:37:52;112.50;;;53.30;;
46457;SDS011;32155;54.076;12.092;2022-09-09T05:40:18;109.32;;;54.08;;
46457;SDS011;32155;54.076;12.092;2022-09-09T05:45:09;96.43;;;49.55;;
46457;SDS011;32155;54.076;12.092;2022-09-09T05:50:02;107.05;;;52.50;;
46457;SDS011;32155;54.076;12.092;2022-09-09T05:52:30;105.47;;;53.17;;
46457;SDS011;32155;54.076;12.092;2022-09-09T05:54:56;101.78;;;53.67;;
46457;SDS011;32155;54.076;12.092;2022-09-09T05:59:50;92.50;;;48.78;;
46457;SDS011;32155;54.076;12.092;2022-09-09T06:02:18;95.22;;;51.15;;
46457;SDS011;32155;54.076;12.092;2022-09-09T06:07:09;86.82;;;45.08;;
46457;SDS011;32155;54.076;12.092;2022-09-09T06:12:00;79.63;;;42.42;;
46457;SDS011;32155;54.076;12.092;2022-09-09T06:14:28;86.05;;;43.45;;
46457;SDS011;32155;54.076;12.092;2022-09-09T06:19:19;75.85;;;41.03;;
46457;SDS011;32155;54.076;12.092;2022-09-09T06:21:46;75.20;;;40.10;;
46457;SDS011;32155;54.076;12.092;2022-09-09T06:24:12;69.53;;;39.08;;
46457;SDS011;32155;54.076;12.092;2022-09-09T06:26:42;59.92;;;35.95;;
46457;SDS011;32155;54.076;12.092;2022-09-09T06:29:10;63.78;;;34.05;;
46457;SDS011;32155;54.076;12.092;2022-09-09T06:34:03;54.65;;;31.85;;
46457;SDS011;32155;54.076;12.092;2022-09-09T06:36:37;58.15;;;33.80;;
46457;SDS011;32155;54.076;12.092;2022-09-09T06:39:10;53.42;;;31.38;;
46457;SDS011;32155;54.076;12.092;2022-09-09T06:44:07;46.80;;;29.70;;
46457;SDS011;32155;54.076;12.092;2022-09-09T06:48:58;50.05;;;29.73;;
46457;SDS011;32155;54.076;12.092;2022-09-09T06:51:28;49.35;;;29.75;;
46457;SDS011;32155;54.076;12.092;2022-09-09T06:53:59;49.60;;;30.98;;
46457;SDS011;32155;54.076;12.092;2022-09-09T06:56:37;47.60;;;30.48;;
46457;SDS011;32155;54.076;12.092;2022-09-09T06:59:08;47.92;;;31.05;;
46457;SDS011;32155;54.076;12.092;2022-09-09T07:01:38;51.13;;;31.52;;
46457;SDS011;32155;54.076;12.092;2022-09-09T07:04:16;53.38;;;31.50;;
46457;SDS011;32155;54.076;12.092;2022-09-09T07:09:10;55.30;;;31.48;;
46457;SDS011;32155;54.076;12.092;2022-09-09T07:11:38;59.95;;;34.50;;
46457;SDS011;32155;54.076;12.092;2022-09-09T07:14:11;65.50;;;35.03;;
46457;SDS011;32155;54.076;12.092;2022-09-09T07:16:40;64.28;;;35.85;;
46457;SDS011;32155;54.076;12.092;2022-09-09T07:19:09;66.93;;;38.65;;
46457;SDS011;32155;54.076;12.092;2022-09-09T07:21:36;64.90;;;39.70;;
46457;SDS011;32155;54.076;12.092;2022-09-09T07:26:28;59.83;;;36.67;;
46457;SDS011;32155;54.076;12.092;2022-09-09T07:28:58;60.67;;;37.83;;
46457;SDS011;32155;54.076;12.092;2022-09-09T07:33:55;50.85;;;33.20;;
46457;SDS011;32155;54.076;12.092;2022-09-09T07:38:52;47.42;;;32.30;;
46457;SDS011;32155;54.076;12.092;2022-09-09T07:41:24;46.35;;;32.83;;
46457;SDS011;32155;54.076;12.092;2022-09-09T07:43:55;46.92;;;33.00;;
46457;SDS011;32155;54.076;12.092;2022-09-09T07:48:48;45.92;;;33.35;;
46457;SDS011;32155;54.076;12.092;2022-09-09T07:51:42;48.38;;;33.67;;
46457;SDS011;32155;54.076;12.092;2022-09-09T07:54:09;50.53;;;35.97;;
46457;SDS011;32155;54.076;12.092;2022-09-09T07:56:36;52.83;;;37.13;;
46457;SDS011;32155;54.076;12.092;2022-09-09T07:59:04;50.85;;;35.20;;
46457;SDS011;32155;54.076;12.092;2022-09-09T08:01:38;52.13;;;34.65;;
46457;SDS011;32155;54.076;12.092;2022-09-09T08:04:11;46.67;;;34.30;;
46457;SDS011;32155;54.076;12.092;2022-09-09T08:06:45;45.47;;;33.28;;
46457;SDS011;32155;54.076;12.092;2022-09-09T08:09:12;46.33;;;32.15;;
46457;SDS011;32155;54.076;12.092;2022-09-09T08:11:38;46.72;;;33.53;;
46457;SDS011;32155;54.076;12.092;2022-09-09T08:14:08;43.95;;;31.77;;
46457;SDS011;32155;54.076;12.092;2022-09-09T08:16:36;38.70;;;29.92;;
46457;SDS011;32155;54.076;12.092;2022-09-09T08:19:04;43.47;;;30.48;;
46457;SDS011;32155;54.076;12.092;2022-09-09T08:21:32;37.83;;;27.63;;
46457;SDS011;32155;54.076;12.092;2022-09-09T08:23:59;39.33;;;26.40;;
46457;SDS011;32155;54.076;12.092;2022-09-09T08:26:30;37.35;;;27.52;;
46457;SDS011;32155;54.076;12.092;2022-09-09T08:28:57;38.33;;;27.25;;
46457;SDS011;32155;54.076;12.092;2022-09-09T08:31:28;38.10;;;28.10;;
46457;SDS011;32155;54.076;12.092;2022-09-09T08:33:59;33.67;;;25.90;;
46457;SDS011;32155;54.076;12.092;2022-09-09T08:38:55;33.20;;;24.75;;
46457;SDS011;32155;54.076;12.092;2022-09-09T08:43:59;33.50;;;23.77;;
46457;SDS011;32155;54.076;12.092;2022-09-09T08:51:45;23.83;;;17.88;;
46457;SDS011;32155;54.076;12.092;2022-09-09T08:54:13;22.58;;;18.10;;
46457;SDS011;32155;54.076;12.092;2022-09-09T08:59:04;18.58;;;14.52;;
46457;SDS011;32155;54.076;12.092;2022-09-09T09:06:44;19.95;;;15.43;;
46457;SDS011;32155;54.076;12.092;2022-09-09T09:09:46;19.05;;;15.80;;
46457;SDS011;32155;54.076;12.092;2022-09-09T09:12:18;21.15;;;15.73;;
46457;SDS011;32155;54.076;12.092;2022-09-09T09:14:49;20.98;;;15.30;;
46457;SDS011;32155;54.076;12.092;2022-09-09T09:17:17;19.05;;;17.02;;
46457;SDS011;32155;54.076;12.092;2022-09-09T09:19:45;22.42;;;18.45;;
46457;SDS011;32155;54.076;12.092;2022-09-09T09:30:50;25.42;;;17.33;;
46457;SDS011;32155;54.076;12.092;2022-09-09T09:33:31;22.15;;;16.95;;
46457;SDS011;32155;54.076;12.092;2022-09-09T09:36:00;24.92;;;16.30;;
46457;SDS011;32155;54.076;12.092;2022-09-09T09:38:27;17.52;;;14.10;;
46457;SDS011;32155;54.076;12.092;2022-09-09T09:40:57;16.88;;;12.07;;
46457;SDS011;32155;54.076;12.092;2022-09-09T09:43:34;15.95;;;12.60;;
46457;SDS011;32155;54.076;12.092;2022-09-09T09:46:03;15.73;;;11.30;;
46457;SDS011;32155;54.076;12.092;2022-09-09T09:48:29;13.18;;;10.98;;
46457;SDS011;32155;54.076;12.092;2022-09-09T09:51:03;12.65;;;10.38;;
46457;SDS011;32155;54.076;12.092;2022-09-09T09:53:36;14.60;;;11.27;;
46457;SDS011;32155;54.076;12.092;2022-09-09T09:56:05;13.15;;;9.57;;
46457;SDS011;32155;54.076;12.092;2022-09-09T10:01:23;11.40;;;9.02;;
46457;SDS011;32155;54.076;12.092;2022-09-09T10:03:54;11.48;;;8.02;;
46457;SDS011;32155;54.076;12.092;2022-09-09T10:06:37;10.18;;;7.47;;
46457;SDS011;32155;54.076;12.092;2022-09-09T10:09:18;8.13;;;6.95;;
46457;SDS011;32155;54.076;12.092;2022-09-09T10:18:04;8.02;;;5.55;;
46457;SDS011;32155;54.076;12.092;2022-09-09T10:26:02;6.88;;;5.97;;
46457;SDS011;32155;54.076;12.092;2022-09-09T10:31:38;9.32;;;6.38;;
46457;SDS011;32155;54.076;12.092;2022-09-09T10:42:46;6.80;;;6.00;;
46457;SDS011;32155;54.076;12.092;2022-09-09T10:45:23;10.85;;;6.88;;
46457;SDS011;32155;54.076;12.092;2022-09-09T10:50:34;9.38;;;6.25;;
46457;SDS011;32155;54.076;12.092;2022-09-09T10:55:50;11.25;;;8.77;;
46457;SDS011;32155;54.076;12.092;2022-09-09T10:58:23;9.38;;;7.90;;
46457;SDS011;32155;54.076;12.092;2022-09-09T11:00:59;9.68;;;5.93;;
46457;SDS011;32155;54.076;12.092;2022-09-09T11:06:04;8.32;;;5.88;;
46457;SDS011;32155;54.076;12.092;2022-09-09T11:08:32;7.03;;;5.45;;
46457;SDS011;32155;54.076;12.092;2022-09-09T11:16:22;7.05;;;4.72;;
46457;SDS011;32155;54.076;12.092;2022-09-09T11:19:20;6.15;;;4.22;;
46457;SDS011;32155;54.076;12.092;2022-09-09T11:21:44;8.73;;;4.07;;
46457;SDS011;32155;54.076;12.092;2022-09-09T11:24:14;5.68;;;3.95;;
46457;SDS011;32155;54.076;12.092;2022-09-09T11:26:49;6.10;;;4.00;;
46457;SDS011;32155;54.076;12.092;2022-09-09T11:32:00;8.90;;;4.40;;
46457;SDS011;32155;54.076;12.092;2022-09-09T11:37:55;8.50;;;4.88;;
46457;SDS011;32155;54.076;12.092;2022-09-09T11:40:27;5.68;;;4.30;;
46457;SDS011;32155;54.076;12.092;2022-09-09T11:43:02;7.18;;;4.15;;
46457;SDS011;32155;54.076;12.092;2022-09-09T11:45:30;5.28;;;4.43;;
46457;SDS011;32155;54.076;12.092;2022-09-09T11:47:59;9.68;;;3.90;;
46457;SDS011;32155;54.076;12.092;2022-09-09T11:53:14;9.55;;;5.72;;
46457;SDS011;32155;54.076;12.092;2022-09-09T12:00:46;12.07;;;4.90;;
46457;SDS011;32155;54.076;12.092;2022-09-09T12:08:46;8.02;;;4.75;;
46457;SDS011;32155;54.076;12.092;2022-09-09T12:11:28;6.95;;;4.70;;
46457;SDS011;32155;54.076;12.092;2022-09-09T12:13:56;10.60;;;4.40;;
46457;SDS011;32155;54.076;12.092;2022-09-09T12:19:04;7.35;;;3.95;;
46457;SDS011;32155;54.076;12.092;2022-09-09T12:22:14;5.55;;;3.60;;
46457;SDS011;32155;54.076;12.092;2022-09-09T12:24:32;5.28;;;3.55;;
46457;SDS011;32155;54.076;12.092;2022-09-09T12:29:55;3.97;;;2.72;;
46457;SDS011;32155;54.076;12.092;2022-09-09T12:32:29;5.10;;;3.20;;
46457;SDS011;32155;54.076;12.092;2022-09-09T12:40:34;6.85;;;3.00;;
46457;SDS011;32155;54.076;12.092;2022-09-09T12:43:20;5.40;;;2.60;;
46457;SDS011;32155;54.076;12.092;2022-09-09T12:45:47;8.27;;;3.13;;
46457;SDS011;32155;54.076;12.092;2022-09-09T12:48:16;6.80;;;3.00;;
46457;SDS011;32155;54.076;12.092;2022-09-09T12:50:45;6.93;;;3.40;;
46457;SDS011;32155;54.076;12.092;2022-09-09T12:55:57;7.78;;;2.70;;
46457;SDS011;32155;54.076;12.092;2022-09-09T12:58:31;5.35;;;2.78;;
46457;SDS011;32155;54.076;12.092;2022-09-09T13:00:58;4.10;;;2.20;;
46457;SDS011;32155;54.076;12.092;2022-09-09T13:03:30;6.50;;;2.15;;
46457;SDS011;32155;54.076;12.092;2022-09-09T13:05:57;5.88;;;2.05;;
46457;SDS011;32155;54.076;12.092;2022-09-09T13:08:37;4.80;;;2.17;;
46457;SDS011;32155;54.076;12.092;2022-09-09T13:11:13;7.75;;;2.25;;
46457;SDS011;32155;54.076;12.092;2022-09-09T13:14:00;6.57;;;2.50;;
46457;SDS011;32155;54.076;12.092;2022-09-09T13:16:30;6.22;;;2.30;;
46457;SDS011;32155;54.076;12.092;2022-09-09T13:18:58;7.32;;;2.17;;
46457;SDS011;32155;54.076;12.092;2022-09-09T13:21:34;8.20;;;2.92;;
46457;SDS011;32155;54.076;12.092;2022-09-09T13:24:03;4.68;;;2.30;;
46457;SDS011;32155;54.076;12.092;2022-09-09T13:26:32;8.13;;;2.75;;
46457;SDS011;32155;54.076;12.092;2022-09-09T13:29:17;8.38;;;2.30;;
46457;SDS011;32155;54.076;12.092;2022-09-09T13:31:46;4.60;;;2.40;;
46457;SDS011;32155;54.076;12.092;2022-09-09T13:34:22;3.35;;;2.10;;
46457;SDS011;32155;54.076;12.092;2022-09-09T13:36:59;3.25;;;2.20;;
46457;SDS011;32155;54.076;12.092;2022-09-09T13:39:30;6.72;;;2.50;;
46457;SDS011;32155;54.076;12.092;2022-09-09T13:41:59;5.20;;;2.72;;
46457;SDS011;32155;54.076;12.092;2022-09-09T13:44:30;10.95;;;2.80;;
46457;SDS011;32155;54.076;12.092;2022-09-09T13:47:06;8.88;;;3.08;;
46457;SDS011;32155;54.076;12.092;2022-09-09T13:49:41;12.25;;;3.55;;
46457;SDS011;32155;54.076;12.092;2022-09-09T13:52:14;6.68;;;3.20;;
46457;SDS011;32155;54.076;12.092;2022-09-09T13:54:43;18.30;;;2.90;;
46457;SDS011;32155;54.076;12.092;2022-09-09T13:57:17;7.65;;;2.80;;
46457;SDS011;32155;54.076;12.092;2022-09-09T13:59:45;6.05;;;2.40;;
46457;SDS011;32155;54.076;12.092;2022-09-09T14:02:11;5.80;;;2.10;;
46457;SDS011;32155;54.076;12.092;2022-09-09T14:04:38;6.97;;;2.35;;
46457;SDS011;32155;54.076;12.092;2022-09-09T14:07:07;5.80;;;2.42;;
46457;SDS011;32155;54.076;12.092;2022-09-09T14:09:39;3.42;;;1.90;;
46457;SDS011;32155;54.076;12.092;2022-09-09T14:12:08;9.10;;;2.22;;
46457;SDS011;32155;54.076;12.092;2022-09-09T14:14:37;6.13;;;1.85;;
46457;SDS011;32155;54.076;12.092;2022-09-09T14:17:06;3.35;;;1.80;;
46457;SDS011;32155;54.076;12.092;2022-09-09T14:19:33;3.05;;;1.50;;
46457;SDS011;32155;54.076;12.092;2022-09-09T14:21:59;4.82;;;1.90;;
46457;SDS011;32155;54.076;12.092;2022-09-09T14:24:25;5.50;;;1.90;;
46457;SDS011;32155;54.076;12.092;2022-09-09T14:26:53;3.78;;;1.70;;
46457;SDS011;32155;54.076;12.092;2022-09-09T14:29:22;3.28;;;1.80;;
46457;SDS011;32155;54.076;12.092;2022-09-09T14:31:47;5.65;;;3.17;;
46457;SDS011;32155;54.076;12.092;2022-09-09T14:36:39;3.65;;;1.83;;
46457;SDS011;32155;54.076;12.092;2022-09-09T14:39:06;6.43;;;2.38;;
46457;SDS011;32155;54.076;12.092;2022-09-09T14:41:32;5.00;;;2.50;;
46457;SDS011;32155;54.076;12.092;2022-09-09T14:43:57;4.32;;;2.10;;
46457;SDS011;32155;54.076;12.092;2022-09-09T14:46:24;5.00;;;2.55;;
46457;SDS011;32155;54.076;12.092;2022-09-09T14:48:51;5.15;;;2.67;;
46457;SDS011;32155;54.076;12.092;2022-09-09T14:51:23;5.75;;;2.13;;
46457;SDS011;32155;54.076;12.092;2022-09-09T14:53:53;6.00;;;2.55;;
46457;SDS011;32155;54.076;12.092;2022-09-09T14:56:21;5.78;;;2.28;;
46457;SDS011;32155;54.076;12.092;2022-09-09T14:58:49;4.38;;;1.77;;
46457;SDS011;32155;54.076;12.092;2022-09-09T15:01:16;7.30;;;2.60;;
46457;SDS011;32155;54.076;12.092;2022-09-09T15:03:48;6.68;;;2.60;;
46457;SDS011;32155;54.076;12.092;2022-09-09T15:06:24;8.73;;;2.50;;
46457;SDS011;32155;54.076;12.092;2022-09-09T15:08:54;6.18;;;2.67;;
46457;SDS011;32155;54.076;12.092;2022-09-09T15:11:23;6.82;;;2.40;;
46457;SDS011;32155;54.076;12.092;2022-09-09T15:13:51;5.40;;;2.83;;
46457;SDS011;32155;54.076;12.092;2022-09-09T15:16:20;4.72;;;2.50;;
46457;SDS011;32155;54.076;12.092;2022-09-09T15:18:50;6.90;;;2.30;;
46457;SDS011;32155;54.076;12.092;2022-09-09T15:21:26;6.00;;;2.90;;
46457;SDS011;32155;54.076;12.092;2022-09-09T15:23:53;5.55;;;2.70;;
46457;SDS011;32155;54.076;12.092;2022-09-09T15:26:20;7.18;;;2.90;;
46457;SDS011;32155;54.076;12.092;2022-09-09T15:28:46;5.25;;;2.30;;
46457;SDS011;32155;54.076;12.092;2022-09-09T15:31:21;8.00;;;3.10;;
46457;SDS011;32155;54.076;12.092;2022-09-09T15:33:49;6.65;;;2.60;;
46457;SDS011;32155;54.076;12.092;2022-09-09T15:36:25;7.57;;;2.88;;
46457;SDS011;32155;54.076;12.092;2022-09-09T15:38:59;8.27;;;2.78;;
46457;SDS011;32155;54.076;12.092;2022-09-09T15:41:26;5.60;;;2.55;;
46457;SDS011;32155;54.076;12.092;2022-09-09T15:43:58;8.05;;;2.72;;
46457;SDS011;32155;54.076;12.092;2022-09-09T15:46:29;5.63;;;2.97;;
46457;SDS011;32155;54.076;12.092;2022-09-09T15:51:35;4.82;;;2.53;;
46457;SDS011;32155;54.076;12.092;2022-09-09T15:54:05;9.38;;;2.95;;
46457;SDS011;32155;54.076;12.092;2022-09-09T15:56:33;5.03;;;2.90;;
46457;SDS011;32155;54.076;12.092;2022-09-09T15:58:59;14.70;;;3.60;;
46457;SDS011;32155;54.076;12.092;2022-09-09T16:01:28;8.90;;;4.13;;
46457;SDS011;32155;54.076;12.092;2022-09-09T16:03:56;16.52;;;6.13;;
46457;SDS011;32155;54.076;12.092;2022-09-09T16:06:23;14.55;;;4.65;;
46457;SDS011;32155;54.076;12.092;2022-09-09T16:08:50;12.15;;;4.63;;
46457;SDS011;32155;54.076;12.092;2022-09-09T16:11:21;9.07;;;4.50;;
46457;SDS011;32155;54.076;12.092;2022-09-09T16:13:49;11.40;;;5.00;;
46457;SDS011;32155;54.076;12.092;2022-09-09T16:16:20;16.92;;;5.60;;
46457;SDS011;32155;54.076;12.092;2022-09-09T16:18:48;10.43;;;4.75;;
46457;SDS011;32155;54.076;12.092;2022-09-09T16:21:29;11.48;;;5.00;;
46457;SDS011;32155;54.076;12.092;2022-09-09T16:23:58;16.10;;;5.68;;
46457;SDS011;32155;54.076;12.092;2022-09-09T16:26:26;8.30;;;5.28;;
46457;SDS011;32155;54.076;12.092;2022-09-09T16:28:52;9.02;;;5.25;;
46457;SDS011;32155;54.076;12.092;2022-09-09T16:31:19;16.80;;;6.50;;
46457;SDS011;32155;54.076;12.092;2022-09-09T16:33:46;17.95;;;5.57;;
46457;SDS011;32155;54.076;12.092;2022-09-09T16:36:19;7.95;;;5.20;;
46457;SDS011;32155;54.076;12.092;2022-09-09T16:38:46;16.02;;;6.72;;
46457;SDS011;32155;54.076;12.092;2022-09-09T16:41:13;17.27;;;6.57;;
46457;SDS011;32155;54.076;12.092;2022-09-09T16:43:39;11.25;;;5.95;;
46457;SDS011;32155;54.076;12.092;2022-09-09T16:46:18;12.30;;;6.38;;
46457;SDS011;32155;54.076;12.092;2022-09-09T16:48:45;10.90;;;4.45;;
46457;SDS011;32155;54.076;12.092;2022-09-09T16:51:13;11.52;;;5.47;;
46457;SDS011;32155;54.076;12.092;2022-09-09T16:53:48;10.77;;;5.80;;
46457;SDS011;32155;54.076;12.092;2022-09-09T16:56:16;10.98;;;5.75;;
46457;SDS011;32155;54.076;12.092;2022-09-09T16:58:43;13.43;;;6.63;;
46457;SDS011;32155;54.076;12.092;2022-09-09T17:01:17;10.10;;;5.03;;
46457;SDS011;32155;54.076;12.092;2022-09-09T17:06:13;9.70;;;4.63;;
46457;SDS011;32155;54.076;12.092;2022-09-09T17:08:39;8.40;;;3.00;;
46457;SDS011;32155;54.076;12.092;2022-09-09T17:11:16;6.10;;;2.55;;
46457;SDS011;32155;54.076;12.092;2022-09-09T17:13:48;3.95;;;1.88;;
46457;SDS011;32155;54.076;12.092;2022-09-09T17:16:15;5.40;;;1.98;;
46457;SDS011;32155;54.076;12.092;2022-09-09T17:18:42;3.75;;;1.90;;
46457;SDS011;32155;54.076;12.092;2022-09-09T17:21:09;3.67;;;1.40;;
46457;SDS011;32155;54.076;12.092;2022-09-09T17:23:38;3.13;;;1.10;;
46457;SDS011;32155;54.076;12.092;2022-09-09T17:28:30;3.38;;;1.02;;
46457;SDS011;32155;54.076;12.092;2022-09-09T17:31:01;2.33;;;1.10;;
46457;SDS011;32155;54.076;12.092;2022-09-09T17:33:29;3.60;;;0.90;;
46457;SDS011;32155;54.076;12.092;2022-09-09T17:35:58;2.08;;;0.80;;
46457;SDS011;32155;54.076;12.092;2022-09-09T17:38:26;2.10;;;0.70;;
46457;SDS011;32155;54.076;12.092;2022-09-09T17:41:05;4.65;;;0.93;;
46457;SDS011;32155;54.076;12.092;2022-09-09T17:43:38;0.95;;;0.60;;
46457;SDS011;32155;54.076;12.092;2022-09-09T17:48:39;2.25;;;0.77;;
46457;SDS011;32155;54.076;12.092;2022-09-09T17:51:06;1.38;;;0.90;;
46457;SDS011;32155;54.076;12.092;2022-09-09T17:53:39;1.30;;;0.80;;
46457;SDS011;32155;54.076;12.092;2022-09-09T17:56:10;1.90;;;0.90;;
46457;SDS011;32155;54.076;12.092;2022-09-09T17:58:39;1.83;;;0.90;;
46457;SDS011;32155;54.076;12.092;2022-09-09T18:03:37;3.53;;;0.93;;
46457;SDS011;32155;54.076;12.092;2022-09-09T18:06:06;1.27;;;0.93;;
46457;SDS011;32155;54.076;12.092;2022-09-09T18:08:33;2.78;;;1.00;;
46457;SDS011;32155;54.076;12.092;2022-09-09T18:11:00;2.22;;;1.30;;
46457;SDS011;32155;54.076;12.092;2022-09-09T18:13:26;3.80;;;1.42;;
46457;SDS011;32155;54.076;12.092;2022-09-09T18:15:54;2.28;;;1.35;;
46457;SDS011;32155;54.076;12.092;2022-09-09T18:18:20;1.75;;;1.25;;
46457;SDS011;32155;54.076;12.092;2022-09-09T18:20:59;2.08;;;1.33;;
46457;SDS011;32155;54.076;12.092;2022-09-09T18:23:35;2.25;;;1.30;;